Hobbema, Canada
Current Conditions -  °F | °C
As of 7:00 PM on Monday 22 Dec 2014 (Local Time) from CYEG Reporting Station
Few Clouds Few Clouds  
Wind Chill: 19°   Ceiling: Unl
Heat Index: 25°   Visibility: 15mi
Dew Point: 19°   Wind: 5mph
Humidity: 80%   Direction: 280°W
Pressure: 30.02"   Gusts: NA
Location:  52.83°N, 113.45°W
Report Text: CYEG 230200Z 28004KT 15SM FEW070 M04/M07 A3002 RMK AC1 SLP206
Loading
Personal Weather Stations






























Interactive Weather Map New forecast layout! Learn more

10-Day Weather Forecast

Advertisements
Track Severe Weather on mobile